sensor_id;sensor_type;location;lat;lon;timestamp;P1;durP1;ratioP1;P2;durP2;ratioP2
24801;SDS011;12898;50.520;12.152;2023-01-16T00:01:09;3.47;;;1.20;;
24801;SDS011;12898;50.520;12.152;2023-01-16T00:03:35;4.83;;;1.70;;
24801;SDS011;12898;50.520;12.152;2023-01-16T00:06:01;6.53;;;1.60;;
24801;SDS011;12898;50.520;12.152;2023-01-16T00:08:27;4.80;;;1.20;;
24801;SDS011;12898;50.520;12.152;2023-01-16T00:10:52;4.33;;;1.37;;
24801;SDS011;12898;50.520;12.152;2023-01-16T00:13:18;4.83;;;1.53;;
24801;SDS011;12898;50.520;12.152;2023-01-16T00:15:48;4.37;;;1.10;;
24801;SDS011;12898;50.520;12.152;2023-01-16T00:18:15;11.20;;;1.70;;
24801;SDS011;12898;50.520;12.152;2023-01-16T00:20:42;3.53;;;1.30;;
24801;SDS011;12898;50.520;12.152;2023-01-16T00:23:09;7.80;;;1.60;;
24801;SDS011;12898;50.520;12.152;2023-01-16T00:25:39;5.00;;;1.80;;
24801;SDS011;12898;50.520;12.152;2023-01-16T00:28:06;3.70;;;1.20;;
24801;SDS011;12898;50.520;12.152;2023-01-16T00:30:33;5.30;;;1.37;;
24801;SDS011;12898;50.520;12.152;2023-01-16T00:32:59;3.70;;;1.30;;
24801;SDS011;12898;50.520;12.152;2023-01-16T00:35:24;6.10;;;1.60;;
24801;SDS011;12898;50.520;12.152;2023-01-16T00:37:51;8.50;;;1.90;;
24801;SDS011;12898;50.520;12.152;2023-01-16T00:40:17;4.43;;;1.40;;
24801;SDS011;12898;50.520;12.152;2023-01-16T00:42:43;5.67;;;1.83;;
24801;SDS011;12898;50.520;12.152;2023-01-16T00:45:09;4.83;;;1.77;;
24801;SDS011;12898;50.520;12.152;2023-01-16T00:47:35;5.53;;;1.40;;
24801;SDS011;12898;50.520;12.152;2023-01-16T00:50:01;5.77;;;1.30;;
24801;SDS011;12898;50.520;12.152;2023-01-16T00:52:27;4.10;;;1.27;;
24801;SDS011;12898;50.520;12.152;2023-01-16T00:54:53;4.70;;;1.40;;
24801;SDS011;12898;50.520;12.152;2023-01-16T00:57:19;2.90;;;1.43;;
24801;SDS011;12898;50.520;12.152;2023-01-16T00:59:45;4.00;;;1.80;;
24801;SDS011;12898;50.520;12.152;2023-01-16T01:02:10;4.53;;;1.40;;
24801;SDS011;12898;50.520;12.152;2023-01-16T01:04:36;6.47;;;1.60;;
24801;SDS011;12898;50.520;12.152;2023-01-16T01:07:02;4.03;;;1.20;;
24801;SDS011;12898;50.520;12.152;2023-01-16T01:09:27;2.20;;;1.27;;
24801;SDS011;12898;50.520;12.152;2023-01-16T01:11:55;4.57;;;1.50;;
24801;SDS011;12898;50.520;12.152;2023-01-16T01:14:22;5.93;;;1.67;;
24801;SDS011;12898;50.520;12.152;2023-01-16T01:16:48;3.63;;;1.23;;
24801;SDS011;12898;50.520;12.152;2023-01-16T01:19:13;4.03;;;1.50;;
24801;SDS011;12898;50.520;12.152;2023-01-16T01:21:39;5.40;;;1.43;;
24801;SDS011;12898;50.520;12.152;2023-01-16T01:24:05;5.40;;;1.17;;
24801;SDS011;12898;50.520;12.152;2023-01-16T01:26:31;4.70;;;1.20;;
24801;SDS011;12898;50.520;12.152;2023-01-16T01:28:57;3.13;;;1.20;;
24801;SDS011;12898;50.520;12.152;2023-01-16T01:31:22;5.77;;;1.70;;
24801;SDS011;12898;50.520;12.152;2023-01-16T01:33:48;4.97;;;1.33;;
24801;SDS011;12898;50.520;12.152;2023-01-16T01:36:14;5.37;;;1.30;;
24801;SDS011;12898;50.520;12.152;2023-01-16T01:38:39;3.63;;;1.30;;
24801;SDS011;12898;50.520;12.152;2023-01-16T01:41:05;2.83;;;0.93;;
24801;SDS011;12898;50.520;12.152;2023-01-16T01:43:38;4.47;;;1.20;;
24801;SDS011;12898;50.520;12.152;2023-01-16T01:46:18;5.57;;;1.40;;
24801;SDS011;12898;50.520;12.152;2023-01-16T01:48:51;2.50;;;1.07;;
24801;SDS011;12898;50.520;12.152;2023-01-16T01:51:32;5.50;;;1.33;;
24801;SDS011;12898;50.520;12.152;2023-01-16T01:54:05;4.67;;;1.13;;
24801;SDS011;12898;50.520;12.152;2023-01-16T01:56:47;1.63;;;1.07;;
24801;SDS011;12898;50.520;12.152;2023-01-16T02:02:22;2.37;;;1.00;;
24801;SDS011;12898;50.520;12.152;2023-01-16T02:04:51;3.77;;;2.00;;
24801;SDS011;12898;50.520;12.152;2023-01-16T02:07:22;3.23;;;1.30;;
24801;SDS011;12898;50.520;12.152;2023-01-16T02:09:51;4.67;;;1.10;;
24801;SDS011;12898;50.520;12.152;2023-01-16T02:12:26;3.67;;;1.23;;
24801;SDS011;12898;50.520;12.152;2023-01-16T02:14:53;3.13;;;1.00;;
24801;SDS011;12898;50.520;12.152;2023-01-16T02:17:20;2.47;;;0.80;;
24801;SDS011;12898;50.520;12.152;2023-01-16T02:22:58;2.57;;;1.10;;
24801;SDS011;12898;50.520;12.152;2023-01-16T02:29:15;3.97;;;1.50;;
24801;SDS011;12898;50.520;12.152;2023-01-16T02:35:00;5.33;;;1.20;;
24801;SDS011;12898;50.520;12.152;2023-01-16T02:37:45;4.93;;;1.40;;
24801;SDS011;12898;50.520;12.152;2023-01-16T02:40:37;7.60;;;1.10;;
24801;SDS011;12898;50.520;12.152;2023-01-16T02:46:10;6.33;;;1.20;;
24801;SDS011;12898;50.520;12.152;2023-01-16T02:51:37;3.27;;;1.00;;
24801;SDS011;12898;50.520;12.152;2023-01-16T02:57:03;2.77;;;0.93;;
24801;SDS011;12898;50.520;12.152;2023-01-16T02:59:34;5.80;;;1.20;;
24801;SDS011;12898;50.520;12.152;2023-01-16T03:02:00;6.90;;;1.40;;
24801;SDS011;12898;50.520;12.152;2023-01-16T03:13:26;5.13;;;1.10;;
24801;SDS011;12898;50.520;12.152;2023-01-16T03:16:01;6.37;;;1.30;;
24801;SDS011;12898;50.520;12.152;2023-01-16T03:27:28;8.03;;;1.23;;
24801;SDS011;12898;50.520;12.152;2023-01-16T03:33:19;7.07;;;0.93;;
24801;SDS011;12898;50.520;12.152;2023-01-16T03:35:52;3.83;;;0.97;;
24801;SDS011;12898;50.520;12.152;2023-01-16T03:38:34;3.17;;;1.03;;
24801;SDS011;12898;50.520;12.152;2023-01-16T03:41:01;3.57;;;1.20;;
24801;SDS011;12898;50.520;12.152;2023-01-16T03:43:31;5.73;;;1.20;;
24801;SDS011;12898;50.520;12.152;2023-01-16T03:46:03;3.73;;;1.03;;
24801;SDS011;12898;50.520;12.152;2023-01-16T03:49:23;3.67;;;0.70;;
24801;SDS011;12898;50.520;12.152;2023-01-16T03:51:26;6.97;;;1.40;;
24801;SDS011;12898;50.520;12.152;2023-01-16T03:57:09;4.10;;;1.00;;
24801;SDS011;12898;50.520;12.152;2023-01-16T03:59:46;2.97;;;1.00;;
24801;SDS011;12898;50.520;12.152;2023-01-16T04:02:15;3.70;;;0.77;;
24801;SDS011;12898;50.520;12.152;2023-01-16T04:04:51;6.20;;;1.30;;
24801;SDS011;12898;50.520;12.152;2023-01-16T04:07:39;2.53;;;0.87;;
24801;SDS011;12898;50.520;12.152;2023-01-16T04:10:12;4.87;;;1.27;;
24801;SDS011;12898;50.520;12.152;2023-01-16T04:12:56;5.23;;;0.90;;
24801;SDS011;12898;50.520;12.152;2023-01-16T04:15:31;4.77;;;1.50;;
24801;SDS011;12898;50.520;12.152;2023-01-16T04:17:59;3.23;;;0.90;;
24801;SDS011;12898;50.520;12.152;2023-01-16T04:20:25;4.90;;;1.03;;
24801;SDS011;12898;50.520;12.152;2023-01-16T04:22:53;5.37;;;1.20;;
24801;SDS011;12898;50.520;12.152;2023-01-16T04:25:19;2.40;;;1.20;;
24801;SDS011;12898;50.520;12.152;2023-01-16T04:27:45;4.20;;;1.40;;
24801;SDS011;12898;50.520;12.152;2023-01-16T04:30:11;3.37;;;1.17;;
24801;SDS011;12898;50.520;12.152;2023-01-16T04:32:37;5.03;;;1.63;;
24801;SDS011;12898;50.520;12.152;2023-01-16T04:35:03;2.87;;;1.20;;
24801;SDS011;12898;50.520;12.152;2023-01-16T04:37:30;4.13;;;1.47;;
24801;SDS011;12898;50.520;12.152;2023-01-16T04:39:55;1.77;;;1.27;;
24801;SDS011;12898;50.520;12.152;2023-01-16T04:42:23;3.37;;;1.40;;
24801;SDS011;12898;50.520;12.152;2023-01-16T04:44:49;2.57;;;1.30;;
24801;SDS011;12898;50.520;12.152;2023-01-16T04:47:15;6.00;;;1.63;;
24801;SDS011;12898;50.520;12.152;2023-01-16T04:49:40;3.93;;;1.70;;
24801;SDS011;12898;50.520;12.152;2023-01-16T04:52:06;3.20;;;1.50;;
24801;SDS011;12898;50.520;12.152;2023-01-16T04:54:32;8.43;;;1.97;;
24801;SDS011;12898;50.520;12.152;2023-01-16T04:56:58;3.63;;;1.70;;
24801;SDS011;12898;50.520;12.152;2023-01-16T04:59:25;5.60;;;1.80;;
24801;SDS011;12898;50.520;12.152;2023-01-16T05:01:51;4.00;;;2.07;;
24801;SDS011;12898;50.520;12.152;2023-01-16T05:04:17;3.93;;;1.77;;
24801;SDS011;12898;50.520;12.152;2023-01-16T05:06:43;2.87;;;1.43;;
24801;SDS011;12898;50.520;12.152;2023-01-16T05:09:09;4.43;;;1.80;;
24801;SDS011;12898;50.520;12.152;2023-01-16T05:11:35;8.43;;;2.60;;
24801;SDS011;12898;50.520;12.152;2023-01-16T05:14:00;4.23;;;1.80;;
24801;SDS011;12898;50.520;12.152;2023-01-16T05:16:27;3.63;;;1.70;;
24801;SDS011;12898;50.520;12.152;2023-01-16T05:18:53;4.83;;;1.90;;
24801;SDS011;12898;50.520;12.152;2023-01-16T05:21:19;10.97;;;1.90;;
24801;SDS011;12898;50.520;12.152;2023-01-16T05:23:44;5.33;;;1.83;;
24801;SDS011;12898;50.520;12.152;2023-01-16T05:26:10;4.50;;;2.03;;
24801;SDS011;12898;50.520;12.152;2023-01-16T05:28:36;8.03;;;1.90;;
24801;SDS011;12898;50.520;12.152;2023-01-16T05:31:02;5.70;;;1.87;;
24801;SDS011;12898;50.520;12.152;2023-01-16T05:33:28;6.77;;;2.20;;
24801;SDS011;12898;50.520;12.152;2023-01-16T05:35:54;7.03;;;1.93;;
24801;SDS011;12898;50.520;12.152;2023-01-16T05:38:20;5.20;;;2.20;;
24801;SDS011;12898;50.520;12.152;2023-01-16T05:40:46;4.47;;;1.80;;
24801;SDS011;12898;50.520;12.152;2023-01-16T05:43:12;5.30;;;2.10;;
24801;SDS011;12898;50.520;12.152;2023-01-16T05:45:39;5.97;;;2.17;;
24801;SDS011;12898;50.520;12.152;2023-01-16T05:48:05;6.40;;;2.17;;
24801;SDS011;12898;50.520;12.152;2023-01-16T05:50:31;3.40;;;1.70;;
24801;SDS011;12898;50.520;12.152;2023-01-16T05:52:57;5.63;;;2.13;;
24801;SDS011;12898;50.520;12.152;2023-01-16T05:55:23;5.07;;;1.93;;
24801;SDS011;12898;50.520;12.152;2023-01-16T05:57:49;4.73;;;1.80;;
24801;SDS011;12898;50.520;12.152;2023-01-16T06:00:15;4.70;;;1.87;;
24801;SDS011;12898;50.520;12.152;2023-01-16T06:02:42;7.97;;;1.93;;
24801;SDS011;12898;50.520;12.152;2023-01-16T06:05:07;4.03;;;2.03;;
24801;SDS011;12898;50.520;12.152;2023-01-16T06:07:34;5.70;;;1.90;;
24801;SDS011;12898;50.520;12.152;2023-01-16T06:09:59;6.07;;;1.70;;
24801;SDS011;12898;50.520;12.152;2023-01-16T06:12:25;12.67;;;2.27;;
24801;SDS011;12898;50.520;12.152;2023-01-16T06:14:51;7.83;;;2.10;;
24801;SDS011;12898;50.520;12.152;2023-01-16T06:17:17;4.53;;;1.80;;
24801;SDS011;12898;50.520;12.152;2023-01-16T06:19:43;4.87;;;1.53;;
24801;SDS011;12898;50.520;12.152;2023-01-16T06:22:10;7.27;;;2.07;;
24801;SDS011;12898;50.520;12.152;2023-01-16T06:24:38;6.63;;;1.90;;
24801;SDS011;12898;50.520;12.152;2023-01-16T06:27:04;4.17;;;1.80;;
24801;SDS011;12898;50.520;12.152;2023-01-16T06:29:30;8.53;;;2.60;;
24801;SDS011;12898;50.520;12.152;2023-01-16T06:31:56;5.40;;;1.93;;
24801;SDS011;12898;50.520;12.152;2023-01-16T06:34:21;5.93;;;1.83;;
24801;SDS011;12898;50.520;12.152;2023-01-16T06:36:47;5.77;;;1.90;;
24801;SDS011;12898;50.520;12.152;2023-01-16T06:39:13;4.50;;;1.70;;
24801;SDS011;12898;50.520;12.152;2023-01-16T06:41:40;7.47;;;2.10;;
24801;SDS011;12898;50.520;12.152;2023-01-16T06:44:06;4.13;;;1.70;;
24801;SDS011;12898;50.520;12.152;2023-01-16T06:46:32;4.83;;;2.00;;
24801;SDS011;12898;50.520;12.152;2023-01-16T06:48:58;4.73;;;1.60;;
24801;SDS011;12898;50.520;12.152;2023-01-16T06:51:24;5.83;;;2.00;;
24801;SDS011;12898;50.520;12.152;2023-01-16T06:53:49;4.57;;;1.80;;
24801;SDS011;12898;50.520;12.152;2023-01-16T06:56:15;4.33;;;1.87;;
24801;SDS011;12898;50.520;12.152;2023-01-16T06:58:42;5.07;;;1.80;;
24801;SDS011;12898;50.520;12.152;2023-01-16T07:01:08;4.70;;;1.70;;
24801;SDS011;12898;50.520;12.152;2023-01-16T07:03:34;3.60;;;1.67;;
24801;SDS011;12898;50.520;12.152;2023-01-16T07:06:00;4.10;;;1.73;;
24801;SDS011;12898;50.520;12.152;2023-01-16T07:08:25;7.40;;;1.70;;
24801;SDS011;12898;50.520;12.152;2023-01-16T07:10:51;7.23;;;2.07;;
24801;SDS011;12898;50.520;12.152;2023-01-16T07:13:17;3.57;;;1.90;;
24801;SDS011;12898;50.520;12.152;2023-01-16T07:15:45;5.27;;;1.87;;
24801;SDS011;12898;50.520;12.152;2023-01-16T07:18:31;5.00;;;1.70;;
24801;SDS011;12898;50.520;12.152;2023-01-16T07:21:15;5.30;;;1.50;;
24801;SDS011;12898;50.520;12.152;2023-01-16T07:24:07;6.30;;;1.70;;
24801;SDS011;12898;50.520;12.152;2023-01-16T07:26:40;4.73;;;1.80;;
24801;SDS011;12898;50.520;12.152;2023-01-16T07:29:08;5.53;;;1.50;;
24801;SDS011;12898;50.520;12.152;2023-01-16T07:31:34;4.53;;;1.53;;
24801;SDS011;12898;50.520;12.152;2023-01-16T07:34:01;7.57;;;1.63;;
24801;SDS011;12898;50.520;12.152;2023-01-16T07:36:26;4.30;;;1.47;;
24801;SDS011;12898;50.520;12.152;2023-01-16T07:38:52;5.00;;;1.60;;
24801;SDS011;12898;50.520;12.152;2023-01-16T07:41:18;3.33;;;1.43;;
24801;SDS011;12898;50.520;12.152;2023-01-16T07:43:43;4.90;;;1.57;;
24801;SDS011;12898;50.520;12.152;2023-01-16T07:46:09;4.53;;;1.73;;
24801;SDS011;12898;50.520;12.152;2023-01-16T07:48:35;5.63;;;1.50;;
24801;SDS011;12898;50.520;12.152;2023-01-16T07:51:01;3.77;;;1.73;;
24801;SDS011;12898;50.520;12.152;2023-01-16T07:53:27;4.97;;;1.90;;
24801;SDS011;12898;50.520;12.152;2023-01-16T07:55:55;8.17;;;1.93;;
24801;SDS011;12898;50.520;12.152;2023-01-16T07:58:24;5.90;;;1.60;;
24801;SDS011;12898;50.520;12.152;2023-01-16T08:00:54;7.47;;;2.10;;
24801;SDS011;12898;50.520;12.152;2023-01-16T08:03:22;4.40;;;1.90;;
24801;SDS011;12898;50.520;12.152;2023-01-16T08:05:48;6.00;;;1.60;;
24801;SDS011;12898;50.520;12.152;2023-01-16T08:08:15;4.87;;;1.50;;
24801;SDS011;12898;50.520;12.152;2023-01-16T08:10:41;7.80;;;1.50;;
24801;SDS011;12898;50.520;12.152;2023-01-16T08:13:07;6.80;;;1.63;;
24801;SDS011;12898;50.520;12.152;2023-01-16T08:15:32;4.27;;;1.87;;
24801;SDS011;12898;50.520;12.152;2023-01-16T08:17:58;4.77;;;1.70;;
24801;SDS011;12898;50.520;12.152;2023-01-16T08:20:24;5.23;;;1.50;;
24801;SDS011;12898;50.520;12.152;2023-01-16T08:22:52;3.93;;;1.60;;
24801;SDS011;12898;50.520;12.152;2023-01-16T08:25:20;5.97;;;1.50;;
24801;SDS011;12898;50.520;12.152;2023-01-16T08:27:48;4.73;;;1.67;;
24801;SDS011;12898;50.520;12.152;2023-01-16T08:30:14;4.67;;;1.87;;
24801;SDS011;12898;50.520;12.152;2023-01-16T08:32:40;5.03;;;1.80;;
24801;SDS011;12898;50.520;12.152;2023-01-16T08:35:07;2.67;;;1.60;;
24801;SDS011;12898;50.520;12.152;2023-01-16T08:37:34;4.17;;;1.80;;
24801;SDS011;12898;50.520;12.152;2023-01-16T08:40:00;2.20;;;1.40;;
24801;SDS011;12898;50.520;12.152;2023-01-16T08:42:26;7.87;;;1.83;;
24801;SDS011;12898;50.520;12.152;2023-01-16T08:45:10;4.20;;;1.57;;
24801;SDS011;12898;50.520;12.152;2023-01-16T08:47:56;5.07;;;1.67;;
24801;SDS011;12898;50.520;12.152;2023-01-16T08:50:42;8.70;;;1.77;;
24801;SDS011;12898;50.520;12.152;2023-01-16T08:53:28;3.77;;;1.70;;
24801;SDS011;12898;50.520;12.152;2023-01-16T08:55:54;6.97;;;1.70;;
24801;SDS011;12898;50.520;12.152;2023-01-16T08:58:19;4.53;;;1.60;;
24801;SDS011;12898;50.520;12.152;2023-01-16T09:00:46;2.53;;;1.40;;
24801;SDS011;12898;50.520;12.152;2023-01-16T09:03:13;6.50;;;1.50;;
24801;SDS011;12898;50.520;12.152;2023-01-16T09:05:41;5.33;;;1.70;;
24801;SDS011;12898;50.520;12.152;2023-01-16T09:08:07;3.43;;;1.57;;
24801;SDS011;12898;50.520;12.152;2023-01-16T09:10:33;6.87;;;1.53;;
24801;SDS011;12898;50.520;12.152;2023-01-16T09:12:58;3.30;;;1.47;;
24801;SDS011;12898;50.520;12.152;2023-01-16T09:15:42;3.37;;;1.43;;
24801;SDS011;12898;50.520;12.152;2023-01-16T09:18:08;6.37;;;1.60;;
24801;SDS011;12898;50.520;12.152;2023-01-16T09:20:34;4.93;;;1.40;;
24801;SDS011;12898;50.520;12.152;2023-01-16T09:23:00;6.10;;;1.30;;
24801;SDS011;12898;50.520;12.152;2023-01-16T09:25:28;6.17;;;1.70;;
24801;SDS011;12898;50.520;12.152;2023-01-16T09:27:55;6.73;;;1.40;;
24801;SDS011;12898;50.520;12.152;2023-01-16T09:30:21;3.37;;;1.30;;
24801;SDS011;12898;50.520;12.152;2023-01-16T09:32:47;5.07;;;1.70;;
24801;SDS011;12898;50.520;12.152;2023-01-16T09:35:13;4.60;;;1.60;;
24801;SDS011;12898;50.520;12.152;2023-01-16T09:37:39;3.77;;;1.50;;
24801;SDS011;12898;50.520;12.152;2023-01-16T09:40:09;2.60;;;1.10;;
24801;SDS011;12898;50.520;12.152;2023-01-16T09:42:53;3.87;;;1.30;;
24801;SDS011;12898;50.520;12.152;2023-01-16T09:48:42;5.10;;;1.33;;
24801;SDS011;12898;50.520;12.152;2023-01-16T09:51:27;1.90;;;1.20;;
24801;SDS011;12898;50.520;12.152;2023-01-16T09:53:59;4.33;;;1.30;;
24801;SDS011;12898;50.520;12.152;2023-01-16T09:56:49;3.10;;;1.20;;
24801;SDS011;12898;50.520;12.152;2023-01-16T09:59:40;9.27;;;1.40;;
24801;SDS011;12898;50.520;12.152;2023-01-16T10:04:57;2.83;;;1.23;;
24801;SDS011;12898;50.520;12.152;2023-01-16T10:07:29;5.10;;;1.20;;
24801;SDS011;12898;50.520;12.152;2023-01-16T10:19:00;5.70;;;1.30;;
24801;SDS011;12898;50.520;12.152;2023-01-16T10:21:51;4.63;;;1.20;;
24801;SDS011;12898;50.520;12.152;2023-01-16T10:24:39;6.18;;;1.20;;
24801;SDS011;12898;50.520;12.152;2023-01-16T10:30:37;1.70;;;1.00;;
24801;SDS011;12898;50.520;12.152;2023-01-16T10:36:00;3.53;;;1.33;;
24801;SDS011;12898;50.520;12.152;2023-01-16T10:38:32;1.70;;;1.03;;
24801;SDS011;12898;50.520;12.152;2023-01-16T10:41:24;2.73;;;1.20;;
24801;SDS011;12898;50.520;12.152;2023-01-16T10:44:31;1.50;;;0.93;;
24801;SDS011;12898;50.520;12.152;2023-01-16T10:47:17;8.02;;;1.33;;
24801;SDS011;12898;50.520;12.152;2023-01-16T10:50:13;7.80;;;1.33;;
24801;SDS011;12898;50.520;12.152;2023-01-16T10:52:41;3.63;;;1.10;;
24801;SDS011;12898;50.520;12.152;2023-01-16T10:55:07;4.65;;;1.30;;
24801;SDS011;12898;50.520;12.152;2023-01-16T10:57:35;5.13;;;1.45;;
24801;SDS011;12898;50.520;12.152;2023-01-16T11:00:13;4.65;;;1.67;;
24801;SDS011;12898;50.520;12.152;2023-01-16T11:03:14;3.28;;;1.10;;
24801;SDS011;12898;50.520;12.152;2023-01-16T11:05:44;2.15;;;1.00;;
24801;SDS011;12898;50.520;12.152;2023-01-16T11:10:45;2.47;;;1.10;;
24801;SDS011;12898;50.520;12.152;2023-01-16T11:13:14;5.57;;;1.50;;
24801;SDS011;12898;50.520;12.152;2023-01-16T11:18:56;2.33;;;1.15;;
24801;SDS011;12898;50.520;12.152;2023-01-16T11:21:43;3.92;;;1.15;;
24801;SDS011;12898;50.520;12.152;2023-01-16T11:24:24;1.90;;;1.00;;
24801;SDS011;12898;50.520;12.152;2023-01-16T11:26:58;2.90;;;1.00;;
24801;SDS011;12898;50.520;12.152;2023-01-16T11:29:26;3.97;;;1.10;;
24801;SDS011;12898;50.520;12.152;2023-01-16T11:31:58;2.00;;;0.90;;
24801;SDS011;12898;50.520;12.152;2023-01-16T11:34:29;2.35;;;0.90;;
24801;SDS011;12898;50.520;12.152;2023-01-16T11:37:00;4.13;;;0.90;;
24801;SDS011;12898;50.520;12.152;2023-01-16T11:39:30;2.95;;;1.02;;
24801;SDS011;12898;50.520;12.152;2023-01-16T11:41:58;3.67;;;1.00;;
24801;SDS011;12898;50.520;12.152;2023-01-16T11:44:48;4.47;;;0.93;;
24801;SDS011;12898;50.520;12.152;2023-01-16T11:47:39;3.13;;;1.00;;
24801;SDS011;12898;50.520;12.152;2023-01-16T11:52:57;3.53;;;1.15;;
24801;SDS011;12898;50.520;12.152;2023-01-16T11:55:41;2.53;;;0.98;;
24801;SDS011;12898;50.520;12.152;2023-01-16T11:58:39;3.35;;;1.33;;
24801;SDS011;12898;50.520;12.152;2023-01-16T12:01:28;3.28;;;1.20;;
24801;SDS011;12898;50.520;12.152;2023-01-16T12:04:36;2.95;;;1.13;;
24801;SDS011;12898;50.520;12.152;2023-01-16T12:07:29;3.97;;;1.00;;
24801;SDS011;12898;50.520;12.152;2023-01-16T12:13:30;1.80;;;0.90;;
24801;SDS011;12898;50.520;12.152;2023-01-16T12:19:16;3.67;;;0.90;;
24801;SDS011;12898;50.520;12.152;2023-01-16T12:22:17;3.40;;;1.27;;
24801;SDS011;12898;50.520;12.152;2023-01-16T12:25:00;4.47;;;1.35;;
24801;SDS011;12898;50.520;12.152;2023-01-16T12:31:06;4.15;;;0.98;;
24801;SDS011;12898;50.520;12.152;2023-01-16T12:40:12;1.67;;;0.73;;
24801;SDS011;12898;50.520;12.152;2023-01-16T12:52:00;3.08;;;1.00;;
24801;SDS011;12898;50.520;12.152;2023-01-16T12:55:07;3.33;;;1.27;;
24801;SDS011;12898;50.520;12.152;2023-01-16T12:58:18;1.90;;;0.98;;
24801;SDS011;12898;50.520;12.152;2023-01-16T13:03:44;2.08;;;1.20;;
24801;SDS011;12898;50.520;12.152;2023-01-16T13:09:01;2.78;;;1.58;;
24801;SDS011;12898;50.520;12.152;2023-01-16T13:11:38;3.97;;;1.50;;
24801;SDS011;12898;50.520;12.152;2023-01-16T13:14:35;3.63;;;1.38;;
24801;SDS011;12898;50.520;12.152;2023-01-16T13:17:04;4.22;;;1.52;;
24801;SDS011;12898;50.520;12.152;2023-01-16T13:19:36;6.05;;;1.40;;
24801;SDS011;12898;50.520;12.152;2023-01-16T13:22:06;4.32;;;1.20;;
24801;SDS011;12898;50.520;12.152;2023-01-16T13:24:50;3.65;;;1.75;;
24801;SDS011;12898;50.520;12.152;2023-01-16T13:27:44;3.15;;;1.20;;
24801;SDS011;12898;50.520;12.152;2023-01-16T13:30:53;4.38;;;1.40;;
24801;SDS011;12898;50.520;12.152;2023-01-16T13:33:22;5.38;;;1.75;;
24801;SDS011;12898;50.520;12.152;2023-01-16T13:36:04;3.67;;;1.45;;
24801;SDS011;12898;50.520;12.152;2023-01-16T13:42:08;4.40;;;1.50;;
24801;SDS011;12898;50.520;12.152;2023-01-16T13:44:37;3.47;;;1.33;;
24801;SDS011;12898;50.520;12.152;2023-01-16T13:47:26;4.80;;;2.00;;
24801;SDS011;12898;50.520;12.152;2023-01-16T13:50:07;8.20;;;2.63;;
24801;SDS011;12898;50.520;12.152;2023-01-16T13:52:49;6.53;;;2.60;;
24801;SDS011;12898;50.520;12.152;2023-01-16T13:55:40;7.07;;;2.67;;
24801;SDS011;12898;50.520;12.152;2023-01-16T13:58:09;5.03;;;2.03;;
24801;SDS011;12898;50.520;12.152;2023-01-16T14:00:45;7.10;;;2.13;;
24801;SDS011;12898;50.520;12.152;2023-01-16T14:03:27;4.80;;;1.80;;
24801;SDS011;12898;50.520;12.152;2023-01-16T14:06:15;6.68;;;2.05;;
24801;SDS011;12898;50.520;12.152;2023-01-16T14:17:15;3.73;;;1.53;;
24801;SDS011;12898;50.520;12.152;2023-01-16T14:19:52;6.00;;;1.67;;
24801;SDS011;12898;50.520;12.152;2023-01-16T14:22:19;2.95;;;1.40;;
24801;SDS011;12898;50.520;12.152;2023-01-16T14:24:50;4.37;;;1.53;;
24801;SDS011;12898;50.520;12.152;2023-01-16T14:27:28;4.25;;;1.30;;
24801;SDS011;12898;50.520;12.152;2023-01-16T14:30:29;4.28;;;1.75;;
24801;SDS011;12898;50.520;12.152;2023-01-16T14:32:56;5.50;;;1.77;;
24801;SDS011;12898;50.520;12.152;2023-01-16T14:36:09;4.60;;;1.60;;
24801;SDS011;12898;50.520;12.152;2023-01-16T14:38:19;6.60;;;1.90;;
24801;SDS011;12898;50.520;12.152;2023-01-16T14:40:50;4.03;;;1.47;;
24801;SDS011;12898;50.520;12.152;2023-01-16T14:47:11;6.53;;;2.30;;
24801;SDS011;12898;50.520;12.152;2023-01-16T14:50:13;8.00;;;2.03;;
24801;SDS011;12898;50.520;12.152;2023-01-16T15:01:34;13.87;;;2.83;;
24801;SDS011;12898;50.520;12.152;2023-01-16T15:04:24;14.10;;;2.17;;
24801;SDS011;12898;50.520;12.152;2023-01-16T15:06:56;9.37;;;2.30;;
24801;SDS011;12898;50.520;12.152;2023-01-16T15:09:29;37.83;;;3.10;;
24801;SDS011;12898;50.520;12.152;2023-01-16T15:12:02;9.03;;;2.83;;
24801;SDS011;12898;50.520;12.152;2023-01-16T15:14:40;9.30;;;2.00;;
24801;SDS011;12898;50.520;12.152;2023-01-16T15:17:21;5.33;;;2.00;;
24801;SDS011;12898;50.520;12.152;2023-01-16T15:20:23;9.17;;;2.00;;
24801;SDS011;12898;50.520;12.152;2023-01-16T15:23:17;5.77;;;1.90;;
24801;SDS011;12898;50.520;12.152;2023-01-16T15:30:51;5.40;;;2.30;;
24801;SDS011;12898;50.520;12.152;2023-01-16T15:33:37;5.37;;;2.03;;
24801;SDS011;12898;50.520;12.152;2023-01-16T15:39:37;7.40;;;2.37;;
24801;SDS011;12898;50.520;12.152;2023-01-16T15:42:10;4.83;;;1.87;;
24801;SDS011;12898;50.520;12.152;2023-01-16T15:45:00;5.40;;;1.97;;
24801;SDS011;12898;50.520;12.152;2023-01-16T15:48:23;6.77;;;2.17;;
24801;SDS011;12898;50.520;12.152;2023-01-16T15:51:19;6.57;;;2.87;;
24801;SDS011;12898;50.520;12.152;2023-01-16T15:53:46;5.87;;;2.50;;
24801;SDS011;12898;50.520;12.152;2023-01-16T15:59:04;3.63;;;1.80;;
24801;SDS011;12898;50.520;12.152;2023-01-16T16:01:45;4.67;;;1.93;;
24801;SDS011;12898;50.520;12.152;2023-01-16T16:04:11;5.67;;;2.00;;
24801;SDS011;12898;50.520;12.152;2023-01-16T16:06:37;5.63;;;1.93;;
24801;SDS011;12898;50.520;12.152;2023-01-16T16:09:03;5.10;;;1.80;;
24801;SDS011;12898;50.520;12.152;2023-01-16T16:11:31;4.60;;;1.90;;
24801;SDS011;12898;50.520;12.152;2023-01-16T16:17:18;5.23;;;2.13;;
24801;SDS011;12898;50.520;12.152;2023-01-16T16:20:23;5.43;;;2.30;;
24801;SDS011;12898;50.520;12.152;2023-01-16T16:23:10;4.10;;;2.00;;
24801;SDS011;12898;50.520;12.152;2023-01-16T16:25:37;5.67;;;1.90;;
24801;SDS011;12898;50.520;12.152;2023-01-16T16:28:17;8.17;;;2.10;;
24801;SDS011;12898;50.520;12.152;2023-01-16T16:31:14;13.00;;;3.70;;
24801;SDS011;12898;50.520;12.152;2023-01-16T16:34:06;7.40;;;2.60;;
24801;SDS011;12898;50.520;12.152;2023-01-16T16:36:48;6.33;;;2.00;;
24801;SDS011;12898;50.520;12.152;2023-01-16T16:41:50;4.53;;;2.47;;
24801;SDS011;12898;50.520;12.152;2023-01-16T16:44:35;6.53;;;2.53;;
24801;SDS011;12898;50.520;12.152;2023-01-16T16:47:13;5.57;;;2.40;;
24801;SDS011;12898;50.520;12.152;2023-01-16T16:49:44;5.57;;;2.00;;
24801;SDS011;12898;50.520;12.152;2023-01-16T16:52:20;4.63;;;2.00;;
24801;SDS011;12898;50.520;12.152;2023-01-16T16:55:30;6.13;;;2.07;;
24801;SDS011;12898;50.520;12.152;2023-01-16T16:58:25;9.83;;;2.57;;
24801;SDS011;12898;50.520;12.152;2023-01-16T17:00:52;5.07;;;2.10;;
24801;SDS011;12898;50.520;12.152;2023-01-16T17:03:19;5.17;;;2.37;;
24801;SDS011;12898;50.520;12.152;2023-01-16T17:05:47;4.93;;;2.13;;
24801;SDS011;12898;50.520;12.152;2023-01-16T17:08:18;6.53;;;2.40;;
24801;SDS011;12898;50.520;12.152;2023-01-16T17:10:47;7.70;;;2.93;;
24801;SDS011;12898;50.520;12.152;2023-01-16T17:13:17;6.90;;;2.67;;
24801;SDS011;12898;50.520;12.152;2023-01-16T17:15:44;6.73;;;2.50;;
24801;SDS011;12898;50.520;12.152;2023-01-16T17:18:12;6.40;;;2.30;;
24801;SDS011;12898;50.520;12.152;2023-01-16T17:20:39;5.23;;;2.10;;
24801;SDS011;12898;50.520;12.152;2023-01-16T17:23:12;6.70;;;2.10;;
24801;SDS011;12898;50.520;12.152;2023-01-16T17:25:41;6.20;;;2.20;;
24801;SDS011;12898;50.520;12.152;2023-01-16T17:28:08;6.53;;;2.33;;
24801;SDS011;12898;50.520;12.152;2023-01-16T17:30:34;5.43;;;2.13;;
24801;SDS011;12898;50.520;12.152;2023-01-16T17:33:04;6.43;;;1.87;;
24801;SDS011;12898;50.520;12.152;2023-01-16T17:35:40;8.10;;;1.97;;